createdAt,value
2018-08-18T00:00:56.142Z,26.60
2018-08-18T00:03:24.403Z,26.60
2018-08-18T00:05:52.735Z,26.50
2018-08-18T00:08:20.988Z,26.50
2018-08-18T00:10:49.246Z,26.60
2018-08-18T00:13:17.497Z,26.50
2018-08-18T00:15:45.769Z,26.50
2018-08-18T00:18:14.204Z,26.50
2018-08-18T00:20:42.474Z,26.50
2018-08-18T00:23:10.762Z,26.50
2018-08-18T00:25:39.032Z,26.40
2018-08-18T00:28:19.629Z,26.40
2018-08-18T00:30:47.897Z,26.40
2018-08-18T00:33:16.160Z,26.40
2018-08-18T00:35:44.421Z,26.30
2018-08-18T00:38:13.256Z,26.30
2018-08-18T00:40:41.497Z,26.40
2018-08-18T00:43:09.821Z,26.40
2018-08-18T00:45:38.144Z,26.30
2018-08-18T00:48:06.442Z,26.30
2018-08-18T00:50:44.032Z,26.40
2018-08-18T00:53:14.124Z,26.30
2018-08-18T00:55:42.388Z,26.40
2018-08-18T00:58:16.452Z,26.30
2018-08-18T01:00:48.920Z,26.30
2018-08-18T01:03:17.185Z,26.20
2018-08-18T01:05:45.504Z,26.20
2018-08-18T01:08:13.806Z,26.20
2018-08-18T01:10:42.070Z,26.10
2018-08-18T01:13:10.391Z,26.10
2018-08-18T01:15:38.681Z,26.10
2018-08-18T01:18:06.917Z,26.10
2018-08-18T01:20:35.170Z,26.10
2018-08-18T01:23:03.447Z,26.00
2018-08-18T01:25:31.705Z,26.00
2018-08-18T01:28:00.386Z,26.00
2018-08-18T01:30:28.724Z,26.00
2018-08-18T01:32:56.991Z,25.90
2018-08-18T01:35:25.311Z,25.90
2018-08-18T01:37:53.584Z,25.90
2018-08-18T01:40:22.109Z,25.90
2018-08-18T01:42:50.392Z,25.90
2018-08-18T01:45:18.668Z,25.90
2018-08-18T01:47:46.977Z,25.90
2018-08-18T01:50:20.026Z,25.90
2018-08-18T01:52:48.276Z,25.90
2018-08-18T01:55:16.524Z,25.80
2018-08-18T01:57:44.869Z,25.80
2018-08-18T02:00:24.628Z,25.80
2018-08-18T02:02:52.939Z,25.70
2018-08-18T02:05:21.264Z,25.70
2018-08-18T02:07:49.523Z,25.70
2018-08-18T02:10:17.806Z,25.70
2018-08-18T02:12:57.272Z,25.70
2018-08-18T02:15:25.556Z,25.70
2018-08-18T02:17:53.809Z,25.70
2018-08-18T02:20:22.061Z,25.70
2018-08-18T02:22:50.313Z,25.70
2018-08-18T02:25:18.597Z,25.60
2018-08-18T02:27:46.849Z,25.60
2018-08-18T02:30:16.265Z,25.60
2018-08-18T02:32:44.506Z,25.50
2018-08-18T02:35:12.817Z,25.50
2018-08-18T02:37:41.053Z,25.50
2018-08-18T02:40:15.096Z,25.50
2018-08-18T02:42:43.236Z,25.50
2018-08-18T02:45:12.092Z,25.50
2018-08-18T02:47:40.425Z,25.50
2018-08-18T02:50:09.770Z,25.50
2018-08-18T02:52:38.080Z,25.50
2018-08-18T02:55:08.561Z,25.50
2018-08-18T02:57:39.959Z,25.40
2018-08-18T03:00:11.956Z,25.30
2018-08-18T03:02:40.217Z,25.30
2018-08-18T03:05:08.512Z,25.30
2018-08-18T03:07:42.161Z,25.30
2018-08-18T03:10:15.615Z,25.30
2018-08-18T03:12:43.943Z,25.30
2018-08-18T03:15:16.149Z,25.30
2018-08-18T03:17:44.409Z,25.20
2018-08-18T03:20:12.665Z,25.20
2018-08-18T03:22:41.210Z,25.20
2018-08-18T03:25:09.485Z,25.20
2018-08-18T03:27:37.770Z,25.10
2018-08-18T03:30:06.101Z,25.10
2018-08-18T03:32:34.376Z,25.10
2018-08-18T03:35:02.617Z,25.10
2018-08-18T03:37:31.693Z,25.10
2018-08-18T03:39:59.945Z,25.20
2018-08-18T03:42:33.505Z,25.10
2018-08-18T03:45:01.811Z,25.10
2018-08-18T03:47:30.020Z,25.00
2018-08-18T03:49:58.259Z,25.00
2018-08-18T03:52:26.554Z,25.00
2018-08-18T03:54:54.827Z,25.10
2018-08-18T03:57:23.089Z,25.00
2018-08-18T03:59:51.354Z,25.00
2018-08-18T04:02:19.645Z,25.00
2018-08-18T04:04:49.757Z,25.00
2018-08-18T04:07:17.997Z,24.90
2018-08-18T04:09:46.441Z,24.90
2018-08-18T04:12:14.691Z,24.90
2018-08-18T04:14:44.257Z,24.90
2018-08-18T04:17:24.637Z,24.90
2018-08-18T04:19:53.407Z,24.90
2018-08-18T04:22:22.773Z,24.80
2018-08-18T04:24:51.004Z,24.80
2018-08-18T04:27:36.553Z,24.80
2018-08-18T04:30:07.497Z,24.80
2018-08-18T04:32:48.701Z,24.70
2018-08-18T04:35:17.600Z,24.70
2018-08-18T04:37:45.789Z,24.70
2018-08-18T04:40:14.040Z,24.70
2018-08-18T04:42:42.677Z,24.70
2018-08-18T04:45:11.224Z,24.60
2018-08-18T04:47:39.511Z,24.60
2018-08-18T04:50:07.749Z,24.60
2018-08-18T04:52:36.018Z,24.60
2018-08-18T04:55:04.694Z,24.60
2018-08-18T04:57:33.053Z,24.60
2018-08-18T05:00:01.289Z,24.60
2018-08-18T05:02:29.541Z,24.50
2018-08-18T05:04:57.804Z,24.50
2018-08-18T05:07:27.681Z,24.50
2018-08-18T05:09:55.899Z,24.50
2018-08-18T05:12:24.134Z,24.50
2018-08-18T05:14:52.406Z,24.40
2018-08-18T05:17:20.973Z,24.40
2018-08-18T05:19:53.477Z,24.40
2018-08-18T05:22:21.765Z,24.40
2018-08-18T05:24:50.018Z,24.40
2018-08-18T05:27:19.237Z,24.40
2018-08-18T05:29:48.158Z,24.40
2018-08-18T05:32:16.409Z,24.30
2018-08-18T05:34:44.665Z,24.30
2018-08-18T05:37:12.901Z,24.40
2018-08-18T05:39:41.155Z,24.30
2018-08-18T05:42:09.426Z,24.30
2018-08-18T05:44:37.669Z,24.20
2018-08-18T05:47:05.953Z,24.10
2018-08-18T05:49:34.252Z,24.20
2018-08-18T05:52:02.651Z,24.20
2018-08-18T05:54:30.914Z,24.20
2018-08-18T05:56:59.196Z,24.20
2018-08-18T05:59:27.459Z,24.20
2018-08-18T06:01:55.760Z,24.10
2018-08-18T06:04:24.012Z,24.10
2018-08-18T06:06:52.947Z,24.00
2018-08-18T06:09:22.334Z,24.00
2018-08-18T06:11:50.633Z,23.90
2018-08-18T06:14:19.216Z,24.00
2018-08-18T06:16:47.818Z,24.00
2018-08-18T06:19:16.135Z,24.00
2018-08-18T06:21:44.416Z,24.00
2018-08-18T06:24:12.711Z,23.90
2018-08-18T06:26:41.045Z,24.00
2018-08-18T06:29:09.302Z,24.00
2018-08-18T06:31:54.385Z,24.00
2018-08-18T06:34:23.719Z,23.90
2018-08-18T06:36:52.000Z,23.90
2018-08-18T06:39:20.317Z,23.90
2018-08-18T06:41:48.643Z,24.00
2018-08-18T06:44:18.183Z,23.90
2018-08-18T06:46:49.144Z,23.90
2018-08-18T06:49:17.508Z,23.90
2018-08-18T06:51:45.924Z,23.90
2018-08-18T06:54:14.246Z,23.90
2018-08-18T06:56:43.221Z,23.80
2018-08-18T06:59:11.480Z,23.80
2018-08-18T07:01:39.941Z,23.80
2018-08-18T07:04:13.436Z,23.80
2018-08-18T07:06:42.004Z,23.80
2018-08-18T07:09:10.649Z,23.80
2018-08-18T07:11:38.929Z,23.80
2018-08-18T07:14:07.715Z,23.70
2018-08-18T07:16:35.996Z,23.70
2018-08-18T07:19:04.248Z,23.70
2018-08-18T07:21:32.512Z,23.80
2018-08-18T07:24:00.834Z,23.80
2018-08-18T07:26:29.092Z,23.80
2018-08-18T07:28:57.452Z,23.80
2018-08-18T07:31:25.583Z,23.80
2018-08-18T07:33:54.432Z,23.80
2018-08-18T07:36:24.113Z,23.80
2018-08-18T07:38:52.385Z,23.90
2018-08-18T07:41:20.632Z,23.80
2018-08-18T07:43:48.849Z,23.70
2018-08-18T07:46:17.183Z,23.70
2018-08-18T07:48:45.381Z,23.80
2018-08-18T07:51:13.641Z,23.80
2018-08-18T07:53:41.867Z,23.80
2018-08-18T07:56:10.156Z,23.80
2018-08-18T07:58:38.760Z,23.80
2018-08-18T08:01:07.412Z,23.80
2018-08-18T08:03:35.690Z,23.80
2018-08-18T08:06:03.938Z,23.80
2018-08-18T08:08:37.471Z,23.80
2018-08-18T08:11:11.888Z,23.80
2018-08-18T08:13:40.313Z,23.80
2018-08-18T08:16:08.908Z,23.80
2018-08-18T08:18:37.169Z,23.90
2018-08-18T08:21:05.423Z,23.90
2018-08-18T08:23:33.709Z,23.90
2018-08-18T08:26:01.981Z,23.90
2018-08-18T08:28:30.249Z,23.90
2018-08-18T08:30:58.525Z,23.90
2018-08-18T08:33:33.548Z,23.90
2018-08-18T08:36:01.877Z,23.90
2018-08-18T08:38:41.592Z,23.90
2018-08-18T08:41:12.206Z,24.00
2018-08-18T08:43:40.446Z,24.00
2018-08-18T08:46:08.692Z,23.90
2018-08-18T08:48:37.034Z,24.00
2018-08-18T08:51:05.264Z,24.10
2018-08-18T08:53:33.552Z,24.10
2018-08-18T08:56:01.763Z,24.00
2018-08-18T08:58:30.042Z,24.10
2018-08-18T09:00:58.277Z,24.20
2018-08-18T09:03:26.568Z,24.20
2018-08-18T09:05:54.841Z,24.20
2018-08-18T09:08:23.124Z,24.20
2018-08-18T09:10:51.387Z,24.30
2018-08-18T09:13:19.657Z,24.40
2018-08-18T09:15:47.933Z,24.50
2018-08-18T09:18:16.221Z,24.50
2018-08-18T09:20:46.353Z,24.60
2018-08-18T09:23:14.609Z,24.60
2018-08-18T09:25:42.858Z,24.70
2018-08-18T09:28:11.233Z,24.70
2018-08-18T09:30:39.513Z,24.70
2018-08-18T09:33:08.317Z,24.80
2018-08-18T09:35:55.007Z,24.80
2018-08-18T09:38:23.316Z,24.90
2018-08-18T09:40:51.713Z,24.90
2018-08-18T09:43:22.862Z,24.90
2018-08-18T09:45:51.973Z,25.00
2018-08-18T09:48:21.143Z,25.10
2018-08-18T09:50:49.552Z,25.00
2018-08-18T09:53:17.847Z,25.10
2018-08-18T09:55:47.269Z,25.20
2018-08-18T09:58:15.544Z,25.30
2018-08-18T10:00:48.344Z,25.30
2018-08-18T10:03:16.600Z,25.30
2018-08-18T10:05:44.841Z,25.30
2018-08-18T10:08:13.137Z,25.40
2018-08-18T10:10:41.376Z,25.50
2018-08-18T10:13:09.649Z,25.50
2018-08-18T10:15:37.918Z,25.60
2018-08-18T10:18:06.193Z,25.70
2018-08-18T10:20:38.726Z,25.80
2018-08-18T10:23:08.853Z,25.80
2018-08-18T10:25:37.093Z,25.70
2018-08-18T10:28:05.613Z,25.70
2018-08-18T10:30:33.913Z,25.80
2018-08-18T10:33:03.860Z,26.00
2018-08-18T10:35:32.568Z,26.10
2018-08-18T10:38:05.346Z,26.10
2018-08-18T10:40:33.605Z,26.20
2018-08-18T10:43:01.857Z,26.20
2018-08-18T10:45:30.170Z,26.30
2018-08-18T10:47:58.439Z,26.40
2018-08-18T10:50:37.686Z,26.50
2018-08-18T10:53:08.751Z,26.60
2018-08-18T10:55:38.638Z,26.60
2018-08-18T10:58:08.330Z,26.70
2018-08-18T11:00:37.293Z,26.70
2018-08-18T11:03:06.736Z,26.70
2018-08-18T11:05:35.318Z,26.70
2018-08-18T11:08:08.448Z,26.70
2018-08-18T11:10:39.089Z,26.80
2018-08-18T11:13:07.337Z,26.90
2018-08-18T11:15:39.869Z,26.80
2018-08-18T11:18:08.097Z,26.80
2018-08-18T11:20:36.381Z,26.90
2018-08-18T11:23:19.420Z,26.90
2018-08-18T11:25:56.784Z,26.90
2018-08-18T11:28:25.420Z,27.00
2018-08-18T11:30:54.616Z,27.10
2018-08-18T11:33:35.721Z,27.10
2018-08-18T11:36:05.758Z,27.10
2018-08-18T11:38:35.185Z,27.20
2018-08-18T11:41:04.404Z,27.20
2018-08-18T11:43:37.169Z,27.10
2018-08-18T11:46:05.869Z,27.10
2018-08-18T11:48:35.256Z,27.30
2018-08-18T11:51:03.524Z,27.30
2018-08-18T11:53:31.795Z,27.50
2018-08-18T11:56:00.037Z,27.50
2018-08-18T11:58:28.289Z,27.50
2018-08-18T12:00:58.589Z,27.50
2018-08-18T12:03:29.372Z,27.50
2018-08-18T12:05:59.380Z,27.60
2018-08-18T12:08:28.989Z,27.70
2018-08-18T12:10:59.680Z,27.80
2018-08-18T12:13:33.346Z,27.80
2018-08-18T12:16:05.738Z,27.90
2018-08-18T12:18:35.280Z,28.00
2018-08-18T12:21:05.024Z,28.00
2018-08-18T12:23:35.375Z,28.00
2018-08-18T12:26:04.981Z,28.10
2018-08-18T12:28:38.541Z,28.10
2018-08-18T12:31:24.546Z,28.00
2018-08-18T12:33:53.572Z,28.10
2018-08-18T12:36:21.982Z,28.20
2018-08-18T12:38:56.376Z,28.20
2018-08-18T12:41:24.752Z,28.30
2018-08-18T12:43:57.667Z,28.30
2018-08-18T12:46:36.211Z,28.30
2018-08-18T12:49:05.800Z,28.40
2018-08-18T12:51:34.069Z,28.50
2018-08-18T12:54:03.812Z,28.40
2018-08-18T12:56:32.130Z,28.40
2018-08-18T12:59:00.600Z,28.50
2018-08-18T13:01:41.684Z,28.50
2018-08-18T13:04:13.550Z,28.50
2018-08-18T13:06:43.845Z,28.60
2018-08-18T13:09:14.553Z,28.70
2018-08-18T13:11:44.001Z,28.80
2018-08-18T13:14:14.886Z,28.70
2018-08-18T13:16:43.207Z,28.80
2018-08-18T13:19:12.193Z,28.90
2018-08-18T13:21:40.452Z,28.90
2018-08-18T13:24:08.734Z,28.90
2018-08-18T13:26:37.018Z,28.80
2018-08-18T13:29:05.353Z,28.80
2018-08-18T13:31:38.015Z,28.80
2018-08-18T13:34:07.577Z,28.90
2018-08-18T13:36:38.121Z,28.80
2018-08-18T13:39:14.130Z,28.80
2018-08-18T13:41:43.415Z,28.90
2018-08-18T13:44:11.749Z,28.90
2018-08-18T13:46:49.288Z,28.70
2018-08-18T13:49:21.077Z,28.70
2018-08-18T13:51:49.342Z,28.80
2018-08-18T13:54:17.593Z,28.80
2018-08-18T13:56:45.896Z,28.80
2018-08-18T13:59:14.344Z,28.70
2018-08-18T14:01:43.929Z,28.80
2018-08-18T14:04:21.178Z,28.80
2018-08-18T14:06:54.944Z,28.90
2018-08-18T14:09:23.188Z,28.90
2018-08-18T14:11:54.572Z,28.80
2018-08-18T14:14:22.833Z,28.80
2018-08-18T14:16:51.172Z,28.80
2018-08-18T14:19:21.161Z,28.80
2018-08-18T14:21:53.840Z,28.80
2018-08-18T14:24:26.447Z,28.80
2018-08-18T14:27:01.157Z,28.80
2018-08-18T14:29:31.006Z,28.80
2018-08-18T14:31:59.641Z,28.80
2018-08-18T14:34:27.950Z,28.80
2018-08-18T14:37:00.560Z,28.90
2018-08-18T14:39:35.740Z,28.90
2018-08-18T14:42:04.045Z,29.00
2018-08-18T14:44:32.305Z,29.00
2018-08-18T14:47:00.620Z,29.00
2018-08-18T14:49:28.860Z,29.00
2018-08-18T14:51:57.141Z,29.00
2018-08-18T14:54:28.367Z,29.00
2018-08-18T14:56:57.605Z,29.00
2018-08-18T14:59:31.117Z,29.00
2018-08-18T15:02:00.183Z,29.00
2018-08-18T15:04:28.558Z,29.10
2018-08-18T15:06:56.732Z,29.10
2018-08-18T15:09:41.405Z,29.00
2018-08-18T15:12:09.690Z,29.10
2018-08-18T15:14:37.920Z,29.00
2018-08-18T15:17:06.220Z,29.00
2018-08-18T15:19:34.495Z,29.10
2018-08-18T15:22:09.066Z,29.00
2018-08-18T15:24:37.308Z,28.90
2018-08-18T15:27:05.604Z,28.90
2018-08-18T15:29:33.870Z,29.00
2018-08-18T15:32:02.148Z,29.10
2018-08-18T15:34:30.432Z,29.10
2018-08-18T15:36:58.710Z,29.00
2018-08-18T15:39:28.349Z,28.90
2018-08-18T15:41:58.086Z,28.90
2018-08-18T15:44:26.415Z,28.80
2018-08-18T15:46:54.681Z,28.90
2018-08-18T15:49:22.926Z,28.90
2018-08-18T15:51:51.216Z,28.90
2018-08-18T15:54:19.490Z,29.00
2018-08-18T15:56:47.718Z,29.00
2018-08-18T15:59:15.960Z,29.00
2018-08-18T16:01:44.234Z,28.90
2018-08-18T16:04:12.467Z,28.90
2018-08-18T16:06:40.718Z,28.90
2018-08-18T16:09:09.218Z,28.90
2018-08-18T16:11:37.542Z,28.90
2018-08-18T16:14:05.813Z,28.90
2018-08-18T16:16:48.422Z,28.90
2018-08-18T16:19:16.657Z,28.70
2018-08-18T16:21:44.921Z,28.80
2018-08-18T16:24:27.564Z,28.80
2018-08-18T16:26:55.808Z,28.80
2018-08-18T16:29:24.072Z,28.80
2018-08-18T16:31:57.264Z,28.80
2018-08-18T16:34:25.525Z,28.70
2018-08-18T16:36:53.790Z,28.60
2018-08-18T16:39:22.012Z,28.60
2018-08-18T16:41:50.292Z,28.60
2018-08-18T16:44:18.577Z,28.50
2018-08-18T16:46:48.044Z,28.50
2018-08-18T16:49:16.288Z,28.50
2018-08-18T16:51:44.589Z,28.40
2018-08-18T16:54:20.201Z,28.40
2018-08-18T16:56:48.441Z,28.30
2018-08-18T16:59:16.707Z,28.30
2018-08-18T17:01:45.396Z,28.30
2018-08-18T17:04:17.931Z,28.30
2018-08-18T17:06:46.172Z,28.30
2018-08-18T17:09:24.546Z,28.30
2018-08-18T17:12:03.765Z,28.20
2018-08-18T17:14:32.014Z,28.20
2018-08-18T17:17:00.427Z,28.20
2018-08-18T17:19:28.688Z,28.20
2018-08-18T17:21:56.949Z,28.10
2018-08-18T17:24:25.237Z,28.10
2018-08-18T17:26:53.542Z,28.10
2018-08-18T17:29:21.848Z,28.10
2018-08-18T17:31:50.220Z,28.10
2018-08-18T17:34:18.462Z,28.10
2018-08-18T17:36:46.708Z,28.10
2018-08-18T17:39:14.981Z,28.10
2018-08-18T17:41:43.217Z,28.10
2018-08-18T17:44:11.481Z,28.00
2018-08-18T17:46:43.981Z,28.00
2018-08-18T17:49:13.296Z,27.90
2018-08-18T17:51:50.361Z,27.90
2018-08-18T17:54:18.609Z,27.90
2018-08-18T17:56:46.870Z,27.90
2018-08-18T17:59:15.098Z,27.80
2018-08-18T18:01:55.703Z,27.90
2018-08-18T18:04:25.041Z,27.80
2018-08-18T18:06:53.280Z,27.80
2018-08-18T18:09:22.148Z,27.80
2018-08-18T18:11:50.449Z,27.70
2018-08-18T18:14:18.715Z,27.80
2018-08-18T18:16:46.979Z,27.70
2018-08-18T18:19:15.250Z,27.70
2018-08-18T18:21:45.166Z,27.60
2018-08-18T18:24:13.586Z,27.60
2018-08-18T18:26:45.477Z,27.60
2018-08-18T18:29:18.144Z,27.60
2018-08-18T18:31:46.452Z,27.60
2018-08-18T18:34:14.849Z,27.60
2018-08-18T18:36:43.133Z,27.60
2018-08-18T18:39:11.491Z,27.50
2018-08-18T18:41:39.996Z,27.50
2018-08-18T18:44:08.436Z,27.50
2018-08-18T18:46:36.989Z,27.40
2018-08-18T18:49:19.553Z,27.40
2018-08-18T18:51:47.945Z,27.40
2018-08-18T18:54:16.206Z,27.30
2018-08-18T18:56:44.458Z,27.30
2018-08-18T18:59:12.757Z,27.30
2018-08-18T19:01:41.087Z,27.30
2018-08-18T19:04:09.483Z,27.30
2018-08-18T19:06:52.051Z,27.20
2018-08-18T19:09:20.439Z,27.20
2018-08-18T19:11:48.777Z,27.20
2018-08-18T19:14:17.100Z,27.20
2018-08-18T19:16:45.552Z,27.10
2018-08-18T19:19:13.841Z,27.10
2018-08-18T19:21:42.119Z,27.10
2018-08-18T19:24:18.666Z,27.00
2018-08-18T19:26:52.263Z,27.00
2018-08-18T19:29:23.381Z,27.00
2018-08-18T19:31:54.069Z,26.90
2018-08-18T19:34:22.466Z,26.90
2018-08-18T19:37:01.477Z,26.90
2018-08-18T19:39:30.886Z,26.80
2018-08-18T19:42:19.399Z,26.80
2018-08-18T19:44:51.707Z,26.80
2018-08-18T19:47:38.656Z,26.80
2018-08-18T19:50:07.896Z,26.70
2018-08-18T19:52:36.159Z,26.70
2018-08-18T19:55:04.444Z,26.70
2018-08-18T19:57:36.550Z,26.70
2018-08-18T20:00:16.334Z,26.70
2018-08-18T20:02:51.953Z,26.70
2018-08-18T20:05:21.246Z,26.60
2018-08-18T20:07:49.730Z,26.60
2018-08-18T20:10:18.045Z,26.60
2018-08-18T20:12:46.341Z,26.60
2018-08-18T20:15:15.273Z,26.60
2018-08-18T20:17:43.665Z,26.50
2018-08-18T20:20:12.360Z,26.50
2018-08-18T20:22:40.841Z,26.50
2018-08-18T20:25:09.092Z,26.50
2018-08-18T20:27:37.383Z,26.50
2018-08-18T20:30:05.677Z,26.50
2018-08-18T20:32:33.921Z,26.40
2018-08-18T20:35:02.166Z,26.40
2018-08-18T20:37:30.422Z,26.30
2018-08-18T20:39:58.705Z,26.40
2018-08-18T20:42:32.357Z,26.40
2018-08-18T20:45:00.622Z,26.30
2018-08-18T20:47:30.597Z,26.30
2018-08-18T20:49:59.104Z,26.30
2018-08-18T20:52:28.592Z,26.30
2018-08-18T20:54:57.733Z,26.20
2018-08-18T20:57:25.997Z,26.30
2018-08-18T20:59:54.231Z,26.20
2018-08-18T21:02:22.509Z,26.20
2018-08-18T21:04:56.036Z,26.20
2018-08-18T21:07:24.349Z,26.20
2018-08-18T21:09:52.581Z,26.10
2018-08-18T21:12:20.832Z,26.00
2018-08-18T21:14:49.061Z,26.00
2018-08-18T21:17:17.328Z,26.00
2018-08-18T21:19:45.605Z,26.00
2018-08-18T21:22:14.524Z,26.00
2018-08-18T21:24:42.809Z,26.00
2018-08-18T21:27:11.123Z,26.00
2018-08-18T21:29:39.383Z,25.90
2018-08-18T21:32:07.654Z,25.90
2018-08-18T21:34:41.297Z,25.90
2018-08-18T21:37:09.748Z,25.90
2018-08-18T21:39:37.985Z,25.90
2018-08-18T21:42:06.256Z,25.90
2018-08-18T21:44:34.675Z,25.90
2018-08-18T21:47:03.069Z,25.90
2018-08-18T21:49:31.841Z,25.80
2018-08-18T21:52:00.080Z,25.80
2018-08-18T21:54:28.727Z,25.80
2018-08-18T21:56:57.036Z,25.80
2018-08-18T21:59:25.282Z,25.80
2018-08-18T22:01:58.801Z,25.80
2018-08-18T22:04:27.085Z,25.80
2018-08-18T22:06:55.338Z,25.80
2018-08-18T22:09:28.884Z,25.80
2018-08-18T22:11:57.163Z,25.70
2018-08-18T22:14:25.445Z,25.70
2018-08-18T22:16:56.456Z,25.70
2018-08-18T22:19:25.270Z,25.70
2018-08-18T22:21:53.657Z,25.70
2018-08-18T22:24:22.052Z,25.60
2018-08-18T22:26:50.496Z,25.60
2018-08-18T22:29:22.961Z,25.60
2018-08-18T22:31:51.488Z,25.60
2018-08-18T22:34:19.741Z,25.60
2018-08-18T22:36:47.996Z,25.60
2018-08-18T22:39:17.744Z,25.50
2018-08-18T22:41:46.018Z,25.60
2018-08-18T22:44:14.337Z,25.60
2018-08-18T22:46:42.567Z,25.50
2018-08-18T22:49:10.809Z,25.50
2018-08-18T22:51:39.075Z,25.50
2018-08-18T22:54:07.304Z,25.50
2018-08-18T22:56:36.334Z,25.50
2018-08-18T22:59:06.165Z,25.50
2018-08-18T23:01:35.562Z,25.50
2018-08-18T23:04:04.888Z,25.50
2018-08-18T23:06:35.074Z,25.40
2018-08-18T23:09:03.713Z,25.40
2018-08-18T23:11:31.969Z,25.40
2018-08-18T23:14:00.266Z,25.40
2018-08-18T23:16:28.492Z,25.40
2018-08-18T23:18:56.741Z,25.30
2018-08-18T23:21:29.497Z,25.30
2018-08-18T23:23:59.329Z,25.30
2018-08-18T23:26:27.765Z,25.30
2018-08-18T23:28:56.169Z,25.30
2018-08-18T23:31:24.674Z,25.30
2018-08-18T23:33:52.916Z,25.30
2018-08-18T23:36:21.174Z,25.30
2018-08-18T23:38:54.589Z,25.20
2018-08-18T23:41:22.836Z,25.20
2018-08-18T23:43:51.481Z,25.20
2018-08-18T23:46:19.724Z,25.20
2018-08-18T23:48:47.970Z,25.20
2018-08-18T23:51:16.208Z,25.20
2018-08-18T23:53:44.455Z,25.10
2018-08-18T23:56:12.665Z,25.10
2018-08-18T23:58:40.925Z,25.10
